aviador You're here:

OIII Decoded Metar

TEHERAN in IRAN
Report Time2017-08-22 08:30:00
UTC Time2017-08-22 08:59:56
Flight Rules vfr VFR
Wind190° at 10 kt
W.Decomp.*RWY 11: 2.2 kt HW 9.7 kt RCW
W.Rank190° ranks 24
Current wind is above 190° avg. (6.2)
Visibility9999 m
Phenomena:N/A
Clouds:N/A
Expected CloudBase > 13,600 ft AGL from Temp-Dew spread
CeilingNone
Temp33°C (ISA +26)
Dew Point-1°C (11% RH)
Heat Index30.6°C
AAT27.2°C
QNH1015 hPa
Density Alt6,821 ft
Elevation3,907 ft
Report Wrong Elevation
Raw Report
METAR OIII 220830Z 19010KT CAVOK 33/M01 Q1015 A2997 NOSIG=

Extra information for OIII:More info

Metar Taf Metar & Taf Last 4 Metars F.Rules Stats Wind Profile Meteogram Temp Stats Airport Information Weather charts Add Link Nearby VenuesMetar ALERT Operation Metar Decoded Social comments